Harned, Kentucky
Current Conditions -  °F | °C
As of 9:58 AM on Wednesday 26 Nov 2014 (Local Time) from KFTK Reporting Station
Clear Clear  
Wind Chill: 30°   Ceiling: Unl
Heat Index: 34°   Visibility: 10mi
Dew Point: 28°   Wind: 5mph
Humidity: 80%   Direction: 70°ENE
Pressure: 30.1"   Gusts: NA
Location:  37.75°N, 86.41°W
Report Text: KFTK 261558Z AUTO 07004KT 10SM CLR 01/M02 A3010 RMK AO2 SLP202 T00111020
Loading
Personal Weather Stations






























Interactive Weather Map New forecast layout! Learn more

10-Day Weather Forecast

Advertisements
Track Severe Weather on mobile